createdAt,value
2017-06-09T17:07:45.211Z,25.4
2017-06-09T17:10:09.770Z,25.71
2017-06-09T17:12:34.207Z,25.73
2017-06-09T17:14:59.665Z,25.89
2017-06-09T17:17:24.124Z,25.73
2017-06-09T17:19:48.601Z,25.52
2017-06-09T17:22:13.111Z,25.04
2017-06-09T17:24:37.553Z,24.58
2017-06-09T17:27:01.974Z,24.06
2017-06-09T17:29:26.421Z,24.29
2017-06-09T17:31:50.863Z,24.09
2017-06-09T17:34:15.235Z,24.18
2017-06-09T17:36:31.160Z,24.06
2017-06-09T17:38:55.521Z,23.67
2017-06-09T17:41:11.425Z,23.74
2017-06-09T17:43:04.481Z,23.37
2017-06-09T17:45:20.387Z,22.92
2017-06-09T17:47:44.648Z,22.89
2017-06-09T17:50:08.929Z,22.81
2017-06-09T17:52:33.379Z,22.46
2017-06-09T17:54:57.652Z,22.21
2017-06-09T17:57:21.912Z,21.97
2017-06-09T17:59:29.256Z,22.21
2017-06-09T18:01:53.447Z,22.36
2017-06-09T18:04:17.606Z,22.12
2017-06-09T18:06:41.829Z,22
2017-06-09T18:09:06.014Z,22.37
2017-06-09T18:11:30.160Z,22.62
2017-06-09T18:13:54.301Z,22.81
2017-06-09T18:16:18.481Z,23.01
2017-06-09T18:18:42.687Z,22.92
2017-06-09T18:21:06.853Z,22.86
2017-06-09T18:23:08.788Z,23.26
2017-06-09T18:25:24.520Z,23.06
2017-06-09T18:27:48.705Z,22.92
2017-06-09T18:29:42.416Z,22.92
2017-06-09T18:31:58.211Z,22.26
2017-06-09T18:34:22.481Z,22.78
2017-06-09T18:36:46.659Z,22.7
2017-06-09T18:39:10.842Z,22.95
2017-06-09T18:41:35.128Z,22.98
2017-06-09T18:43:50.916Z,22.7
2017-06-09T18:46:15.101Z,22.78
2017-06-09T18:48:39.391Z,22.67
2017-06-09T18:50:41.279Z,22.95
2017-06-09T18:53:05.539Z,23.02
2017-06-09T18:55:29.721Z,23.14
2017-06-09T18:57:53.887Z,23.16
2017-06-09T19:00:18.094Z,23.14
2017-06-09T19:02:42.376Z,23.02
2017-06-09T19:05:06.669Z,22.67
2017-06-09T19:07:30.815Z,21.94
2017-06-09T19:09:54.966Z,21.81
2017-06-09T19:12:19.211Z,21.48
2017-06-09T19:14:35.003Z,21.78
2017-06-09T19:16:59.182Z,21.51
2017-06-09T19:19:00.566Z,21.5
2017-06-09T19:21:10.464Z,21.5
2017-06-09T19:23:34.671Z,21.54
2017-06-09T19:25:58.856Z,21.22
2017-06-09T19:28:23.049Z,21.26
2017-06-09T19:30:47.206Z,21.17
2017-06-09T19:32:57.637Z,21.15
2017-06-09T19:34:59.484Z,20.95
2017-06-09T19:37:02.125Z,20.53
2017-06-09T19:39:17.914Z,20.56
2017-06-09T19:41:42.095Z,20.67
2017-06-09T19:44:06.178Z,20.5
2017-06-09T19:46:21.854Z,20.49
2017-06-09T19:48:29.045Z,20.52
2017-06-09T19:50:44.639Z,20.48
2017-06-09T19:53:00.211Z,20.64
2017-06-09T19:55:24.293Z,20.67
2017-06-09T19:57:48.375Z,20.53
2017-06-09T20:00:12.453Z,20.67
2017-06-09T20:02:36.539Z,20.7
2017-06-09T20:04:52.124Z,20.58
2017-06-09T20:07:16.109Z,20.4
2017-06-09T20:09:40.081Z,20.33
2017-06-09T20:12:04.168Z,20.24
2017-06-09T20:14:28.240Z,20.15
2017-06-09T20:16:52.327Z,20
2017-06-09T20:19:16.408Z,20
2017-06-09T20:21:40.490Z,19.99
2017-06-09T20:24:04.573Z,20.18
2017-06-09T20:26:28.659Z,20.12
2017-06-09T20:28:44.343Z,20.03
2017-06-09T20:30:45.704Z,20.03
2017-06-09T20:33:09.770Z,20.08
2017-06-09T20:35:11.599Z,20.15
2017-06-09T20:37:35.711Z,20.03
2017-06-09T20:39:59.797Z,20.18
2017-06-09T20:42:23.876Z,20.04
2017-06-09T20:44:47.958Z,20.15
2017-06-09T20:47:12.043Z,20.03
2017-06-09T20:49:36.127Z,20.12
2017-06-09T20:52:00.123Z,20.04
2017-06-09T20:54:15.681Z,20.03
2017-06-09T20:56:39.764Z,20
2017-06-09T20:58:55.459Z,20.15
2017-06-09T21:01:19.534Z,20.03
2017-06-09T21:03:35.123Z,20.14
2017-06-09T21:05:59.092Z,20
2017-06-09T21:08:23.178Z,20.1
2017-06-09T21:10:38.758Z,19.92
2017-06-09T21:13:02.838Z,20.02
2017-06-09T21:15:26.935Z,20.14
2017-06-09T21:17:51.004Z,19.96
2017-06-09T21:20:15.085Z,20
2017-06-09T21:22:39.068Z,19.93
2017-06-09T21:25:03.046Z,19.94
2017-06-09T21:27:04.407Z,19.94
2017-06-09T21:29:19.975Z,19.78
2017-06-09T21:31:43.967Z,19.7
2017-06-09T21:34:08.038Z,19.9
2017-06-09T21:36:32.017Z,19.79
2017-06-09T21:38:47.601Z,19.66
2017-06-09T21:40:58.231Z,19.72
2017-06-09T21:43:08.608Z,19.87
2017-06-09T21:45:32.539Z,19.66
2017-06-09T21:47:56.487Z,19.71
2017-06-09T21:50:20.466Z,19.75
2017-06-09T21:52:44.444Z,19.92
2017-06-09T21:55:00.023Z,20.04
2017-06-09T21:57:01.927Z,19.97
2017-06-09T21:59:17.580Z,19.89
2017-06-09T22:01:41.549Z,19.71
2017-06-09T22:03:57.038Z,19.7
2017-06-09T22:06:12.614Z,19.78
2017-06-09T22:08:36.597Z,19.71
2017-06-09T22:11:00.571Z,19.75
2017-06-09T22:13:16.155Z,20.02
2017-06-09T22:15:40.136Z,20.19
2017-06-09T22:17:55.722Z,20.27
2017-06-09T22:20:19.695Z,20.37
2017-06-09T22:22:44.286Z,20.39
2017-06-09T22:24:45.638Z,20.27
2017-06-09T22:27:01.221Z,20.18
2017-06-09T22:28:54.587Z,20.26
2017-06-09T22:31:18.662Z,20.26
2017-06-09T22:33:42.648Z,20.03
2017-06-09T22:36:06.622Z,20.03
2017-06-09T22:38:30.601Z,19.84
2017-06-09T22:40:54.581Z,19.84
2017-06-09T22:43:18.550Z,19.66
2017-06-09T22:45:42.539Z,19.57
2017-06-09T22:48:06.523Z,19.74
2017-06-09T22:50:30.497Z,19.75
2017-06-09T22:52:54.475Z,19.63
2017-06-09T22:55:18.360Z,19.67
2017-06-09T22:57:42.333Z,19.59
2017-06-09T23:00:06.315Z,19.59
2017-06-09T23:02:21.796Z,19.32
2017-06-09T23:04:45.775Z,19.52
2017-06-09T23:07:09.756Z,19.52
2017-06-09T23:09:25.235Z,19.56
2017-06-09T23:11:49.214Z,19.63
2017-06-09T23:13:59.086Z,19.77
2017-06-09T23:16:23.039Z,19.71
2017-06-09T23:18:47.021Z,19.71
2017-06-09T23:21:02.604Z,19.48
2017-06-09T23:23:18.080Z,19.44
2017-06-09T23:25:42.062Z,19.32
2017-06-09T23:28:06.049Z,19.32
2017-06-09T23:30:30.021Z,19.44
2017-06-09T23:32:54.002Z,19.26
2017-06-09T23:35:17.979Z,19.27
2017-06-09T23:37:41.949Z,19.27
2017-06-09T23:39:57.440Z,19.15
2017-06-09T23:42:21.316Z,18.96
2017-06-09T23:44:45.298Z,18.96
2017-06-09T23:47:00.776Z,19
2017-06-09T23:49:24.755Z,18.91
2017-06-09T23:51:40.236Z,18.88
2017-06-09T23:54:04.114Z,18.74
2017-06-09T23:56:27.988Z,18.71
2017-06-09T23:58:51.865Z,18.74
